sensor_id;sensor_type;location;lat;lon;timestamp;pressure;altitude;pressure_sealevel;temperature;humidity
30073;BME280;16897;52.422;13.678;2023-03-23T00:00:29;100276.53;;;15.85;50.95
30073;BME280;16897;52.422;13.678;2023-03-23T00:04:31;100226.06;;;15.59;50.92
30073;BME280;16897;52.422;13.678;2023-03-23T00:08:33;100201.75;;;15.45;50.82
30073;BME280;16897;52.422;13.678;2023-03-23T00:12:39;100204.66;;;15.42;50.90
30073;BME280;16897;52.422;13.678;2023-03-23T00:16:43;100249.09;;;15.78;50.85
30073;BME280;16897;52.422;13.678;2023-03-23T00:20:47;100242.28;;;15.75;50.90
30073;BME280;16897;52.422;13.678;2023-03-23T00:24:50;100237.28;;;15.72;51.04
30073;BME280;16897;52.422;13.678;2023-03-23T00:28:55;100221.81;;;15.67;50.92
30073;BME280;16897;52.422;13.678;2023-03-23T00:32:57;100182.53;;;15.34;50.83
30073;BME280;16897;52.422;13.678;2023-03-23T00:36:59;100228.81;;;15.57;50.96
30073;BME280;16897;52.422;13.678;2023-03-23T00:41:01;100231.59;;;15.56;50.92
30073;BME280;16897;52.422;13.678;2023-03-23T00:45:04;100229.19;;;15.53;50.97
30073;BME280;16897;52.422;13.678;2023-03-23T00:49:12;100219.91;;;15.48;51.08
30073;BME280;16897;52.422;13.678;2023-03-23T00:53:15;100222.09;;;15.43;50.81
30073;BME280;16897;52.422;13.678;2023-03-23T00:57:17;100211.13;;;15.38;50.87
30073;BME280;16897;52.422;13.678;2023-03-23T01:01:19;100204.13;;;15.27;50.86
30073;BME280;16897;52.422;13.678;2023-03-23T01:05:20;100200.09;;;15.23;50.85
30073;BME280;16897;52.422;13.678;2023-03-23T01:09:22;100195.91;;;15.21;51.08
30073;BME280;16897;52.422;13.678;2023-03-23T01:13:24;100180.69;;;15.03;50.84
30073;BME280;16897;52.422;13.678;2023-03-23T01:17:25;100155.91;;;14.85;50.94
30073;BME280;16897;52.422;13.678;2023-03-23T01:21:27;100184.53;;;14.99;50.84
30073;BME280;16897;52.422;13.678;2023-03-23T01:25:34;100180.22;;;14.98;50.88
30073;BME280;16897;52.422;13.678;2023-03-23T01:29:36;100150.06;;;14.81;50.90
30073;BME280;16897;52.422;13.678;2023-03-23T01:33:38;100171.44;;;14.88;50.87
30073;BME280;16897;52.422;13.678;2023-03-23T01:37:42;100170.03;;;14.84;50.99
30073;BME280;16897;52.422;13.678;2023-03-23T01:41:43;100163.97;;;14.72;50.89
30073;BME280;16897;52.422;13.678;2023-03-23T01:45:47;100171.03;;;14.72;50.97
30073;BME280;16897;52.422;13.678;2023-03-23T01:49:49;100147.66;;;14.57;50.95
30073;BME280;16897;52.422;13.678;2023-03-23T01:53:56;100167.22;;;14.65;51.08
30073;BME280;16897;52.422;13.678;2023-03-23T01:57:59;100161.75;;;14.56;50.98
30073;BME280;16897;52.422;13.678;2023-03-23T02:02:01;100165.78;;;14.49;51.02
30073;BME280;16897;52.422;13.678;2023-03-23T02:06:04;100135.75;;;14.31;50.91
30073;BME280;16897;52.422;13.678;2023-03-23T02:10:13;100146.47;;;14.39;51.04
30073;BME280;16897;52.422;13.678;2023-03-23T02:14:15;100126.72;;;14.24;50.85
30073;BME280;16897;52.422;13.678;2023-03-23T02:27:11;100136.50;;;14.22;51.05
30073;BME280;16897;52.422;13.678;2023-03-23T02:31:38;100145.94;;;14.24;51.08
30073;BME280;16897;52.422;13.678;2023-03-23T02:35:48;100132.81;;;14.13;50.98
30073;BME280;16897;52.422;13.678;2023-03-23T02:39:55;100128.66;;;14.10;51.08
30073;BME280;16897;52.422;13.678;2023-03-23T02:43:58;100123.66;;;14.07;50.96
30073;BME280;16897;52.422;13.678;2023-03-23T02:48:04;100132.34;;;14.08;51.01
30073;BME280;16897;52.422;13.678;2023-03-23T02:52:11;100118.16;;;13.99;51.11
30073;BME280;16897;52.422;13.678;2023-03-23T02:56:17;100095.84;;;13.82;51.04
30073;BME280;16897;52.422;13.678;2023-03-23T03:00:20;100117.69;;;13.94;51.16
30073;BME280;16897;52.422;13.678;2023-03-23T03:04:22;100131.78;;;14.04;51.15
30073;BME280;16897;52.422;13.678;2023-03-23T03:08:43;100121.75;;;13.87;51.22
30073;BME280;16897;52.422;13.678;2023-03-23T03:13:01;100147.38;;;14.06;51.23
30073;BME280;16897;52.422;13.678;2023-03-23T03:17:14;100148.22;;;14.06;51.35
30073;BME280;16897;52.422;13.678;2023-03-23T03:21:19;100048.31;;;13.53;51.22
30073;BME280;16897;52.422;13.678;2023-03-23T03:25:30;100123.66;;;14.07;51.29
30073;BME280;16897;52.422;13.678;2023-03-23T03:29:34;100111.84;;;14.02;51.31
30073;BME280;16897;52.422;13.678;2023-03-23T03:33:37;100081.31;;;13.78;51.21
30073;BME280;16897;52.422;13.678;2023-03-23T03:37:39;100133.66;;;14.13;51.26
30073;BME280;16897;52.422;13.678;2023-03-23T03:41:43;100120.88;;;14.09;51.28
30073;BME280;16897;52.422;13.678;2023-03-23T03:45:45;100104.53;;;14.05;51.33
30073;BME280;16897;52.422;13.678;2023-03-23T03:49:47;100127.91;;;14.20;51.30
30073;BME280;16897;52.422;13.678;2023-03-23T03:53:49;100096.66;;;14.05;51.37
30073;BME280;16897;52.422;13.678;2023-03-23T03:57:51;100100.91;;;14.17;51.29
30073;BME280;16897;52.422;13.678;2023-03-23T04:02:10;100066.97;;;14.05;51.41
30073;BME280;16897;52.422;13.678;2023-03-23T04:06:16;100057.91;;;13.98;51.35
30073;BME280;16897;52.422;13.678;2023-03-23T04:10:19;100097.09;;;14.22;51.48
30073;BME280;16897;52.422;13.678;2023-03-23T04:14:25;100097.94;;;14.22;51.44
30073;BME280;16897;52.422;13.678;2023-03-23T04:18:29;100092.81;;;14.21;51.62
30073;BME280;16897;52.422;13.678;2023-03-23T04:22:33;100095.19;;;14.24;51.53
30073;BME280;16897;52.422;13.678;2023-03-23T04:26:36;100074.19;;;14.24;51.38
30073;BME280;16897;52.422;13.678;2023-03-23T04:30:48;100078.69;;;14.33;51.52
30073;BME280;16897;52.422;13.678;2023-03-23T04:34:51;100054.78;;;14.15;51.81
30073;BME280;16897;52.422;13.678;2023-03-23T04:38:55;100074.75;;;14.27;51.44
30073;BME280;16897;52.422;13.678;2023-03-23T04:42:59;100076.53;;;14.38;51.44
30073;BME280;16897;52.422;13.678;2023-03-23T04:47:31;100101.59;;;14.42;51.42
30073;BME280;16897;52.422;13.678;2023-03-23T04:51:36;100093.94;;;14.39;51.53
30073;BME280;16897;52.422;13.678;2023-03-23T04:55:51;100048.91;;;14.11;51.54
30073;BME280;16897;52.422;13.678;2023-03-23T04:59:54;100072.41;;;14.24;51.58
30073;BME280;16897;52.422;13.678;2023-03-23T05:04:09;100085.16;;;14.29;51.55
30073;BME280;16897;52.422;13.678;2023-03-23T05:08:11;100100.28;;;14.36;51.48
30073;BME280;16897;52.422;13.678;2023-03-23T05:12:16;100111.97;;;14.44;51.50
30073;BME280;16897;52.422;13.678;2023-03-23T05:16:43;100105.16;;;14.41;51.51
30073;BME280;16897;52.422;13.678;2023-03-23T05:20:53;100071.31;;;14.27;51.48
30073;BME280;16897;52.422;13.678;2023-03-23T05:24:58;100053.22;;;14.12;51.54
30073;BME280;16897;52.422;13.678;2023-03-23T05:29:00;100090.75;;;14.35;51.61
30073;BME280;16897;52.422;13.678;2023-03-23T05:33:14;100098.63;;;14.35;51.68
30073;BME280;16897;52.422;13.678;2023-03-23T05:37:34;100120.09;;;14.41;51.62
30073;BME280;16897;52.422;13.678;2023-03-23T05:41:44;100137.28;;;14.45;51.61
30073;BME280;16897;52.422;13.678;2023-03-23T05:45:46;100124.38;;;14.42;51.65
30073;BME280;16897;52.422;13.678;2023-03-23T05:49:48;100088.50;;;14.20;51.55
30073;BME280;16897;52.422;13.678;2023-03-23T05:53:53;100123.28;;;14.44;51.67
30073;BME280;16897;52.422;13.678;2023-03-23T05:57:55;100138.81;;;14.47;51.68
30073;BME280;16897;52.422;13.678;2023-03-23T06:02:11;100129.53;;;14.43;51.71
30073;BME280;16897;52.422;13.678;2023-03-23T06:06:15;100124.53;;;14.40;51.57
30073;BME280;16897;52.422;13.678;2023-03-23T06:10:26;100140.13;;;14.42;51.64
30073;BME280;16897;52.422;13.678;2023-03-23T06:14:36;100148.63;;;14.45;51.72
30073;BME280;16897;52.422;13.678;2023-03-23T06:18:38;100126.56;;;14.25;51.73
30073;BME280;16897;52.422;13.678;2023-03-23T06:23:02;100146.47;;;14.39;51.69
30073;BME280;16897;52.422;13.678;2023-03-23T06:27:07;100170.13;;;14.39;51.74
30073;BME280;16897;52.422;13.678;2023-03-23T06:31:12;100137.09;;;14.14;51.82
30073;BME280;16897;52.422;13.678;2023-03-23T06:35:15;100116.25;;;13.90;51.75
30073;BME280;16897;52.422;13.678;2023-03-23T06:39:37;100179.97;;;14.26;51.88
30073;BME280;16897;52.422;13.678;2023-03-23T06:44:02;100138.19;;;14.00;51.85
30073;BME280;16897;52.422;13.678;2023-03-23T06:48:06;100178.16;;;14.26;51.84
30073;BME280;16897;52.422;13.678;2023-03-23T06:52:13;100175.66;;;14.25;51.76
30073;BME280;16897;52.422;13.678;2023-03-23T06:56:15;100179.09;;;14.25;51.92
30073;BME280;16897;52.422;13.678;2023-03-23T07:00:18;100190.31;;;14.27;51.83
30073;BME280;16897;52.422;13.678;2023-03-23T07:04:19;100175.41;;;14.16;51.85
30073;BME280;16897;52.422;13.678;2023-03-23T07:08:30;100143.69;;;13.97;51.94
30073;BME280;16897;52.422;13.678;2023-03-23T07:12:32;100186.03;;;14.26;52.02
30073;BME280;16897;52.422;13.678;2023-03-23T07:16:34;100190.06;;;14.30;51.94
30073;BME280;16897;52.422;13.678;2023-03-23T07:20:36;100186.03;;;14.26;51.94
30073;BME280;16897;52.422;13.678;2023-03-23T07:24:39;100182.31;;;14.17;52.06
30073;BME280;16897;52.422;13.678;2023-03-23T07:29:12;100197.63;;;14.24;52.07
30073;BME280;16897;52.422;13.678;2023-03-23T07:33:18;100161.59;;;14.03;52.10
30073;BME280;16897;52.422;13.678;2023-03-23T07:37:20;100204.53;;;14.25;52.09
30073;BME280;16897;52.422;13.678;2023-03-23T07:41:25;100165.91;;;14.04;52.00
30073;BME280;16897;52.422;13.678;2023-03-23T07:45:29;100179.84;;;14.16;52.21
30073;BME280;16897;52.422;13.678;2023-03-23T07:49:32;100195.09;;;14.22;52.19
30073;BME280;16897;52.422;13.678;2023-03-23T07:53:46;100190.00;;;14.21;52.24
30073;BME280;16897;52.422;13.678;2023-03-23T07:58:08;100199.53;;;14.22;52.27
30073;BME280;16897;52.422;13.678;2023-03-23T08:02:10;100204.28;;;14.28;52.34
30073;BME280;16897;52.422;13.678;2023-03-23T08:06:24;100176.00;;;14.20;52.28
30073;BME280;16897;52.422;13.678;2023-03-23T08:10:48;100140.81;;;14.11;52.40
30073;BME280;16897;52.422;13.678;2023-03-23T08:15:10;100144.94;;;14.36;52.41
30073;BME280;16897;52.422;13.678;2023-03-23T08:19:27;100129.06;;;14.38;52.46
30073;BME280;16897;52.422;13.678;2023-03-23T08:23:52;100143.84;;;14.39;52.49
30073;BME280;16897;52.422;13.678;2023-03-23T08:28:12;100152.34;;;14.43;52.45
30073;BME280;16897;52.422;13.678;2023-03-23T08:32:34;100152.13;;;14.34;52.53
30073;BME280;16897;52.422;13.678;2023-03-23T08:36:46;100178.22;;;14.47;52.56
30073;BME280;16897;52.422;13.678;2023-03-23T08:41:06;100189.94;;;14.54;52.65
30073;BME280;16897;52.422;13.678;2023-03-23T08:45:35;100174.19;;;14.54;52.67
30073;BME280;16897;52.422;13.678;2023-03-23T08:49:53;100138.16;;;14.23;52.56
30073;BME280;16897;52.422;13.678;2023-03-23T08:54:04;100194.94;;;14.57;52.95
30073;BME280;16897;52.422;13.678;2023-03-23T08:58:32;100196.84;;;14.55;52.77
30073;BME280;16897;52.422;13.678;2023-03-23T09:03:00;100182.38;;;14.50;52.79
30073;BME280;16897;52.422;13.678;2023-03-23T09:07:11;100190.38;;;14.71;52.71
30073;BME280;16897;52.422;13.678;2023-03-23T09:11:14;100160.06;;;14.67;52.90
30073;BME280;16897;52.422;13.678;2023-03-23T09:15:17;100186.56;;;14.75;52.79
30073;BME280;16897;52.422;13.678;2023-03-23T09:19:18;100156.38;;;14.58;52.85
30073;BME280;16897;52.422;13.678;2023-03-23T09:23:21;100186.41;;;14.76;52.96
30073;BME280;16897;52.422;13.678;2023-03-23T09:27:23;100194.97;;;14.90;52.95
30073;BME280;16897;52.422;13.678;2023-03-23T09:31:24;100153.56;;;14.71;53.00
30073;BME280;16897;52.422;13.678;2023-03-23T09:35:29;100191.91;;;15.05;52.98
30073;BME280;16897;52.422;13.678;2023-03-23T09:39:31;100181.97;;;15.09;52.98
30073;BME280;16897;52.422;13.678;2023-03-23T09:44:09;100189.56;;;15.23;53.07
30073;BME280;16897;52.422;13.678;2023-03-23T09:49:02;100186.31;;;15.31;53.14
30073;BME280;16897;52.422;13.678;2023-03-23T09:53:00;100191.41;;;15.33;53.07
30073;BME280;16897;52.422;13.678;2023-03-23T09:57:03;100197.69;;;15.41;53.21
30073;BME280;16897;52.422;13.678;2023-03-23T10:09:38;100196.59;;;15.65;53.12
30073;BME280;16897;52.422;13.678;2023-03-23T10:18:36;100201.28;;;15.82;53.34
30073;BME280;16897;52.422;13.678;2023-03-23T10:22:46;100140.16;;;15.58;53.25
30073;BME280;16897;52.422;13.678;2023-03-23T10:31:16;100188.22;;;16.02;53.22
30073;BME280;16897;52.422;13.678;2023-03-23T10:35:41;100160.72;;;15.95;53.23
30073;BME280;16897;52.422;13.678;2023-03-23T10:43:46;100177.47;;;16.24;53.20
30073;BME280;16897;52.422;13.678;2023-03-23T10:48:21;100172.19;;;16.24;53.34
30073;BME280;16897;52.422;13.678;2023-03-23T10:56:41;100180.41;;;16.41;53.46
30073;BME280;16897;52.422;13.678;2023-03-23T11:00:45;100169.44;;;16.35;53.30
30073;BME280;16897;52.422;13.678;2023-03-23T11:04:58;100176.66;;;16.43;53.27
30073;BME280;16897;52.422;13.678;2023-03-23T11:09:08;100185.72;;;16.50;53.27
30073;BME280;16897;52.422;13.678;2023-03-23T11:13:15;100171.69;;;16.50;53.23
30073;BME280;16897;52.422;13.678;2023-03-23T11:17:23;100193.63;;;16.60;53.11
30073;BME280;16897;52.422;13.678;2023-03-23T11:21:26;100159.75;;;16.46;53.16
30073;BME280;16897;52.422;13.678;2023-03-23T11:25:28;100189.75;;;16.64;53.21
30073;BME280;16897;52.422;13.678;2023-03-23T11:29:30;100176.00;;;16.60;53.14
30073;BME280;16897;52.422;13.678;2023-03-23T11:33:47;100175.88;;;16.62;53.38
30073;BME280;16897;52.422;13.678;2023-03-23T11:37:57;100178.25;;;16.75;53.44
30073;BME280;16897;52.422;13.678;2023-03-23T11:42:11;100195.63;;;16.87;53.29
30073;BME280;16897;52.422;13.678;2023-03-23T11:50:28;100162.00;;;16.79;53.17
30073;BME280;16897;52.422;13.678;2023-03-23T11:54:43;100182.72;;;16.94;53.12
30073;BME280;16897;52.422;13.678;2023-03-23T11:58:47;100194.78;;;17.06;53.17
30073;BME280;16897;52.422;13.678;2023-03-23T12:20:38;100205.47;;;17.34;53.36
30073;BME280;16897;52.422;13.678;2023-03-23T12:37:47;100198.59;;;17.60;53.16
30073;BME280;16897;52.422;13.678;2023-03-23T12:46:11;100187.19;;;17.69;52.88
30073;BME280;16897;52.422;13.678;2023-03-23T12:50:39;100187.72;;;17.73;53.17
30073;BME280;16897;52.422;13.678;2023-03-23T12:55:01;100178.13;;;17.72;53.00
30073;BME280;16897;52.422;13.678;2023-03-23T12:59:12;100177.69;;;17.77;52.97
30073;BME280;16897;52.422;13.678;2023-03-23T13:03:57;100151.84;;;17.70;52.73
30073;BME280;16897;52.422;13.678;2023-03-23T13:07:59;100150.31;;;17.78;52.82
30073;BME280;16897;52.422;13.678;2023-03-23T13:12:03;100130.78;;;17.61;52.54
30073;BME280;16897;52.422;13.678;2023-03-23T13:16:40;100191.06;;;17.85;52.92
30073;BME280;16897;52.422;13.678;2023-03-23T13:24:55;100162.66;;;17.87;53.06
30073;BME280;16897;52.422;13.678;2023-03-23T13:29:00;100155.13;;;17.92;52.87
30073;BME280;16897;52.422;13.678;2023-03-23T13:33:06;100149.56;;;17.95;52.69
30073;BME280;16897;52.422;13.678;2023-03-23T13:41:19;100133.28;;;18.00;52.81
30073;BME280;16897;52.422;13.678;2023-03-23T13:49:24;100121.97;;;18.07;52.54
30073;BME280;16897;52.422;13.678;2023-03-23T13:53:45;100139.91;;;18.31;52.48
30073;BME280;16897;52.422;13.678;2023-03-23T14:02:27;100161.16;;;18.40;52.45
30073;BME280;16897;52.422;13.678;2023-03-23T14:06:34;100145.41;;;18.38;52.82
30073;BME280;16897;52.422;13.678;2023-03-23T14:10:49;100165.00;;;18.45;52.70
30073;BME280;16897;52.422;13.678;2023-03-23T14:14:57;100147.75;;;18.41;52.58
30073;BME280;16897;52.422;13.678;2023-03-23T14:19:13;100150.41;;;18.41;52.35
30073;BME280;16897;52.422;13.678;2023-03-23T14:23:16;100145.19;;;18.49;52.44
30073;BME280;16897;52.422;13.678;2023-03-23T14:27:22;100134.25;;;18.44;52.63
30073;BME280;16897;52.422;13.678;2023-03-23T14:31:25;100154.06;;;18.58;52.56
30073;BME280;16897;52.422;13.678;2023-03-23T14:35:30;100123.38;;;18.47;52.30
30073;BME280;16897;52.422;13.678;2023-03-23T14:39:33;100140.84;;;18.58;52.16
30073;BME280;16897;52.422;13.678;2023-03-23T14:43:35;100148.47;;;18.61;52.19
30073;BME280;16897;52.422;13.678;2023-03-23T14:47:40;100140.69;;;18.60;52.19
30073;BME280;16897;52.422;13.678;2023-03-23T14:51:52;100125.63;;;18.60;52.29
30073;BME280;16897;52.422;13.678;2023-03-23T14:55:54;100122.09;;;18.51;52.09
30073;BME280;16897;52.422;13.678;2023-03-23T14:59:58;100106.84;;;18.45;52.10
30073;BME280;16897;52.422;13.678;2023-03-23T15:04:05;100147.03;;;18.67;52.16
30073;BME280;16897;52.422;13.678;2023-03-23T15:08:18;100141.66;;;18.58;51.92
30073;BME280;16897;52.422;13.678;2023-03-23T15:12:24;100138.03;;;18.60;51.87
30073;BME280;16897;52.422;13.678;2023-03-23T15:16:28;100148.09;;;18.56;52.08
30073;BME280;16897;52.422;13.678;2023-03-23T15:20:50;100145.66;;;18.63;51.95
30073;BME280;16897;52.422;13.678;2023-03-23T15:25:01;100153.75;;;18.61;52.05
30073;BME280;16897;52.422;13.678;2023-03-23T15:29:12;100164.47;;;18.60;51.99
30073;BME280;16897;52.422;13.678;2023-03-23T15:33:14;100138.66;;;18.53;51.74
30073;BME280;16897;52.422;13.678;2023-03-23T15:37:30;100145.28;;;18.57;51.93
30073;BME280;16897;52.422;13.678;2023-03-23T15:41:32;100142.81;;;18.56;52.12
30073;BME280;16897;52.422;13.678;2023-03-23T15:45:34;100140.47;;;18.53;52.00
30073;BME280;16897;52.422;13.678;2023-03-23T15:49:36;100118.84;;;18.40;51.83
30073;BME280;16897;52.422;13.678;2023-03-23T15:53:37;100137.25;;;18.49;51.93
30073;BME280;16897;52.422;13.678;2023-03-23T15:57:39;100160.88;;;18.61;51.65
30073;BME280;16897;52.422;13.678;2023-03-23T16:01:41;100137.44;;;18.48;51.74
30073;BME280;16897;52.422;13.678;2023-03-23T16:05:42;100141.41;;;18.52;51.65
30073;BME280;16897;52.422;13.678;2023-03-23T16:09:44;100153.00;;;18.51;51.66
30073;BME280;16897;52.422;13.678;2023-03-23T16:13:45;100170.28;;;18.63;51.59
30073;BME280;16897;52.422;13.678;2023-03-23T16:17:47;100180.72;;;18.65;51.77
30073;BME280;16897;52.422;13.678;2023-03-23T16:21:48;100199.25;;;18.65;51.63
30073;BME280;16897;52.422;13.678;2023-03-23T16:25:50;100203.84;;;18.63;51.68
30073;BME280;16897;52.422;13.678;2023-03-23T16:29:51;100205.84;;;18.61;51.75
30073;BME280;16897;52.422;13.678;2023-03-23T16:33:53;100191.56;;;18.44;51.40
30073;BME280;16897;52.422;13.678;2023-03-23T16:37:56;100211.84;;;18.53;51.49
30073;BME280;16897;52.422;13.678;2023-03-23T16:41:57;100204.06;;;18.51;51.66
30073;BME280;16897;52.422;13.678;2023-03-23T16:45:59;100189.41;;;18.39;51.48
30073;BME280;16897;52.422;13.678;2023-03-23T16:50:00;100193.00;;;18.38;51.35
30073;BME280;16897;52.422;13.678;2023-03-23T16:54:02;100210.56;;;18.39;51.59
30073;BME280;16897;52.422;13.678;2023-03-23T16:58:04;100214.84;;;18.40;51.37
30073;BME280;16897;52.422;13.678;2023-03-23T17:02:06;100226.31;;;18.31;51.22
30073;BME280;16897;52.422;13.678;2023-03-23T17:06:07;100231.75;;;18.29;51.51
30073;BME280;16897;52.422;13.678;2023-03-23T17:10:09;100212.22;;;18.12;51.25
30073;BME280;16897;52.422;13.678;2023-03-23T17:14:11;100230.94;;;18.19;51.13
30073;BME280;16897;52.422;13.678;2023-03-23T17:18:13;100226.34;;;18.21;51.41
30073;BME280;16897;52.422;13.678;2023-03-23T17:22:16;100235.00;;;18.13;51.18
30073;BME280;16897;52.422;13.678;2023-03-23T17:26:17;100231.00;;;18.09;51.25
30073;BME280;16897;52.422;13.678;2023-03-23T17:30:19;100198.69;;;17.88;51.16
30073;BME280;16897;52.422;13.678;2023-03-23T17:34:20;100193.25;;;17.89;51.01
30073;BME280;16897;52.422;13.678;2023-03-23T17:38:22;100227.28;;;18.02;51.30
30073;BME280;16897;52.422;13.678;2023-03-23T17:42:23;100233.50;;;18.11;51.25
30073;BME280;16897;52.422;13.678;2023-03-23T17:46:25;100216.31;;;17.87;51.21
30073;BME280;16897;52.422;13.678;2023-03-23T17:50:27;100262.31;;;18.04;50.94
30073;BME280;16897;52.422;13.678;2023-03-23T17:54:29;100238.31;;;17.78;51.24
30073;BME280;16897;52.422;13.678;2023-03-23T17:58:31;100275.84;;;17.91;51.03
30073;BME280;16897;52.422;13.678;2023-03-23T18:02:34;100275.84;;;17.91;51.19
30073;BME280;16897;52.422;13.678;2023-03-23T18:06:36;100282.78;;;17.92;51.00
30073;BME280;16897;52.422;13.678;2023-03-23T18:10:38;100291.09;;;17.98;50.92
30073;BME280;16897;52.422;13.678;2023-03-23T18:14:40;100241.41;;;17.64;51.13
30073;BME280;16897;52.422;13.678;2023-03-23T18:18:42;100235.81;;;17.67;51.22
30073;BME280;16897;52.422;13.678;2023-03-23T18:22:43;100256.97;;;17.67;50.93
30073;BME280;16897;52.422;13.678;2023-03-23T18:26:45;100227.53;;;17.42;50.97
30073;BME280;16897;52.422;13.678;2023-03-23T18:30:47;100288.22;;;17.72;51.11
30073;BME280;16897;52.422;13.678;2023-03-23T18:34:49;100275.06;;;17.42;51.06
30073;BME280;16897;52.422;13.678;2023-03-23T18:38:54;100317.69;;;17.57;50.95
30073;BME280;16897;52.422;13.678;2023-03-23T18:42:56;100329.34;;;17.55;50.97
30073;BME280;16897;52.422;13.678;2023-03-23T18:46:58;100333.69;;;17.46;50.83
30073;BME280;16897;52.422;13.678;2023-03-23T18:51:00;100336.19;;;17.38;50.95
30073;BME280;16897;52.422;13.678;2023-03-23T18:55:01;100346.03;;;17.36;51.21
30073;BME280;16897;52.422;13.678;2023-03-23T18:59:03;100367.44;;;17.42;51.02
30073;BME280;16897;52.422;13.678;2023-03-23T19:03:05;100343.66;;;17.33;50.83
30073;BME280;16897;52.422;13.678;2023-03-23T19:07:07;100326.97;;;17.22;51.09
30073;BME280;16897;52.422;13.678;2023-03-23T19:11:09;100318.09;;;17.14;50.81
30073;BME280;16897;52.422;13.678;2023-03-23T19:15:11;100313.66;;;17.05;51.21
30073;BME280;16897;52.422;13.678;2023-03-23T19:19:13;100355.34;;;17.20;51.19
30073;BME280;16897;52.422;13.678;2023-03-23T19:23:15;100346.41;;;17.12;51.10
30073;BME280;16897;52.422;13.678;2023-03-23T19:27:17;100342.94;;;17.11;50.96
30073;BME280;16897;52.422;13.678;2023-03-23T19:31:19;100304.03;;;16.84;51.15
30073;BME280;16897;52.422;13.678;2023-03-23T19:35:24;100348.38;;;17.10;51.08
30073;BME280;16897;52.422;13.678;2023-03-23T19:39:26;100323.91;;;16.88;51.10
30073;BME280;16897;52.422;13.678;2023-03-23T19:43:28;100361.97;;;17.05;51.27
30073;BME280;16897;52.422;13.678;2023-03-23T19:47:29;100358.34;;;17.06;51.06
30073;BME280;16897;52.422;13.678;2023-03-23T19:51:31;100361.25;;;17.03;51.13
30073;BME280;16897;52.422;13.678;2023-03-23T19:55:32;100356.81;;;17.03;51.20
30073;BME280;16897;52.422;13.678;2023-03-23T19:59:36;100292.69;;;16.63;51.01
30073;BME280;16897;52.422;13.678;2023-03-23T20:03:38;100347.63;;;16.98;51.05
30073;BME280;16897;52.422;13.678;2023-03-23T20:07:41;100346.66;;;16.89;51.20
30073;BME280;16897;52.422;13.678;2023-03-23T20:11:42;100359.44;;;16.94;51.17
30073;BME280;16897;52.422;13.678;2023-03-23T20:15:43;100304.06;;;16.63;51.18
30073;BME280;16897;52.422;13.678;2023-03-23T20:19:51;100337.47;;;16.84;51.34
30073;BME280;16897;52.422;13.678;2023-03-23T20:23:54;100296.00;;;16.55;51.27
30073;BME280;16897;52.422;13.678;2023-03-23T20:27:56;100350.78;;;16.82;51.28
30073;BME280;16897;52.422;13.678;2023-03-23T20:31:58;100340.91;;;16.74;51.30
30073;BME280;16897;52.422;13.678;2023-03-23T20:36:03;100334.88;;;16.63;50.90
30073;BME280;16897;52.422;13.678;2023-03-23T20:40:11;100330.03;;;16.58;51.30
30073;BME280;16897;52.422;13.678;2023-03-23T20:44:16;100332.38;;;16.61;51.19
30073;BME280;16897;52.422;13.678;2023-03-23T20:48:18;100315.69;;;16.51;51.29
30073;BME280;16897;52.422;13.678;2023-03-23T20:52:21;100337.78;;;16.59;51.39
30073;BME280;16897;52.422;13.678;2023-03-23T20:56:23;100321.50;;;16.45;51.43
30073;BME280;16897;52.422;13.678;2023-03-23T21:00:25;100340.13;;;16.53;51.10
30073;BME280;16897;52.422;13.678;2023-03-23T21:04:27;100310.19;;;16.33;51.29
30073;BME280;16897;52.422;13.678;2023-03-23T21:08:30;100312.72;;;16.34;51.39
30073;BME280;16897;52.422;13.678;2023-03-23T21:12:32;100332.28;;;16.42;51.41
30073;BME280;16897;52.422;13.678;2023-03-23T21:16:34;100316.44;;;16.32;51.54
30073;BME280;16897;52.422;13.678;2023-03-23T21:20:35;100343.53;;;16.44;51.46
30073;BME280;16897;52.422;13.678;2023-03-23T21:24:37;100331.47;;;16.41;51.31
30073;BME280;16897;52.422;13.678;2023-03-23T21:28:39;100323.81;;;16.38;51.36
30073;BME280;16897;52.422;13.678;2023-03-23T21:32:41;100301.81;;;16.18;51.60
30073;BME280;16897;52.422;13.678;2023-03-23T21:36:42;100297.25;;;16.20;51.52
30073;BME280;16897;52.422;13.678;2023-03-23T21:40:44;100304.91;;;16.23;51.42
30073;BME280;16897;52.422;13.678;2023-03-23T21:44:47;100271.06;;;15.98;51.41
30073;BME280;16897;52.422;13.678;2023-03-23T21:48:48;100309.47;;;16.21;51.61
30073;BME280;16897;52.422;13.678;2023-03-23T21:52:53;100304.31;;;16.20;51.46
30073;BME280;16897;52.422;13.678;2023-03-23T21:56:57;100278.97;;;15.98;51.55
30073;BME280;16897;52.422;13.678;2023-03-23T22:00:59;100279.94;;;15.97;51.51
30073;BME280;16897;52.422;13.678;2023-03-23T22:05:01;100282.53;;;15.87;51.43
30073;BME280;16897;52.422;13.678;2023-03-23T22:09:03;100293.66;;;15.90;51.53
30073;BME280;16897;52.422;13.678;2023-03-23T22:13:10;100290.38;;;15.77;51.47
30073;BME280;16897;52.422;13.678;2023-03-23T22:17:12;100292.03;;;15.78;51.33
30073;BME280;16897;52.422;13.678;2023-03-23T22:21:14;100276.53;;;15.64;51.35
30073;BME280;16897;52.422;13.678;2023-03-23T22:25:16;100249.94;;;15.46;51.45
30073;BME280;16897;52.422;13.678;2023-03-23T22:29:18;100267.03;;;15.52;51.45
30073;BME280;16897;52.422;13.678;2023-03-23T22:33:20;100284.09;;;15.57;51.51
30073;BME280;16897;52.422;13.678;2023-03-23T22:37:23;100269.19;;;15.46;51.49
30073;BME280;16897;52.422;13.678;2023-03-23T22:41:28;100268.47;;;15.44;51.62